createdAt,value
2019-03-17T00:01:00.968Z,6.40
2019-03-17T00:03:34.227Z,6.40
2019-03-17T00:06:07.861Z,6.30
2019-03-17T00:08:41.813Z,6.40
2019-03-17T00:11:15.543Z,6.40
2019-03-17T00:13:44.151Z,6.40
2019-03-17T00:16:16.731Z,6.40
2019-03-17T00:18:50.749Z,6.40
2019-03-17T00:21:22.200Z,6.40
2019-03-17T00:23:52.320Z,6.30
2019-03-17T00:26:28.449Z,6.40
2019-03-17T00:28:58.465Z,6.30
2019-03-17T00:31:30.057Z,6.30
2019-03-17T00:34:02.525Z,6.20
2019-03-17T00:36:39.830Z,6.20
2019-03-17T00:39:14.919Z,6.20
2019-03-17T00:41:49.647Z,6.20
2019-03-17T00:44:21.020Z,6.10
2019-03-17T00:46:55.251Z,6.10
2019-03-17T00:49:39.510Z,6.00
2019-03-17T00:52:14.141Z,6.00
2019-03-17T00:54:47.919Z,6.10
2019-03-17T00:57:19.115Z,6.00
2019-03-17T00:59:56.323Z,5.90
2019-03-17T01:02:39.137Z,5.80
2019-03-17T01:05:13.613Z,5.90
2019-03-17T01:07:46.751Z,5.90
2019-03-17T01:10:16.772Z,5.80
2019-03-17T01:12:50.793Z,5.90
2019-03-17T01:15:25.241Z,5.70
2019-03-17T01:17:52.249Z,5.60
2019-03-17T01:20:22.840Z,5.70
2019-03-17T01:22:52.692Z,5.60
2019-03-17T01:25:24.781Z,5.60
2019-03-17T01:27:58.360Z,5.60
2019-03-17T01:30:34.433Z,5.60
2019-03-17T01:33:10.351Z,5.50
2019-03-17T01:35:36.852Z,5.50
2019-03-17T01:38:19.667Z,5.50
2019-03-17T01:40:50.887Z,5.40
2019-03-17T01:43:20.893Z,5.40
2019-03-17T01:45:55.151Z,5.40
2019-03-17T01:48:29.564Z,5.30
2019-03-17T01:51:06.117Z,5.40
2019-03-17T01:53:38.989Z,5.40
2019-03-17T01:56:16.648Z,5.30
2019-03-17T01:58:49.408Z,5.20
2019-03-17T02:01:25.478Z,5.20
2019-03-17T02:03:55.336Z,5.20
2019-03-17T02:06:28.094Z,5.20
2019-03-17T02:09:04.012Z,5.10
2019-03-17T02:11:36.713Z,5.10
2019-03-17T02:14:12.379Z,5.10
2019-03-17T02:16:44.274Z,5.00
2019-03-17T02:19:24.809Z,5.10
2019-03-17T02:21:55.638Z,5.10
2019-03-17T02:24:26.651Z,5.00
2019-03-17T02:26:56.882Z,4.90
2019-03-17T02:29:31.045Z,4.80
2019-03-17T02:32:05.340Z,4.70
2019-03-17T02:34:35.156Z,4.70
2019-03-17T02:37:05.168Z,4.80
2019-03-17T02:39:36.495Z,4.80
2019-03-17T02:42:09.560Z,4.70
2019-03-17T02:44:45.020Z,4.70
2019-03-17T02:47:18.128Z,4.70
2019-03-17T02:49:50.990Z,4.60
2019-03-17T02:52:22.312Z,4.60
2019-03-17T02:55:00.019Z,4.60
2019-03-17T02:57:38.366Z,4.60
2019-03-17T03:00:18.186Z,4.60
2019-03-17T03:02:46.591Z,4.40
2019-03-17T03:05:16.463Z,4.40
2019-03-17T03:07:51.977Z,4.50
2019-03-17T03:10:31.519Z,4.40
2019-03-17T03:13:01.500Z,4.30
2019-03-17T03:15:36.946Z,4.40
2019-03-17T03:18:13.947Z,4.30
2019-03-17T03:20:52.297Z,4.20
2019-03-17T03:23:22.315Z,4.30
2019-03-17T03:25:52.238Z,4.20
2019-03-17T03:28:27.467Z,4.20
2019-03-17T03:31:01.820Z,4.10
2019-03-17T03:33:31.866Z,4.20
2019-03-17T03:36:10.673Z,4.30
2019-03-17T03:38:34.056Z,4.20
2019-03-17T03:41:27.915Z,4.30
2019-03-17T03:43:36.838Z,4.20
2019-03-17T03:46:09.020Z,4.20
2019-03-17T03:48:39.226Z,4.30
2019-03-17T03:51:16.721Z,4.20
2019-03-17T03:53:49.299Z,4.30
2019-03-17T03:56:23.827Z,4.20
2019-03-17T03:58:56.303Z,4.20
2019-03-17T04:01:27.761Z,4.10
2019-03-17T04:04:02.887Z,4.00
2019-03-17T04:06:38.550Z,4.10
2019-03-17T04:09:13.412Z,4.00
2019-03-17T04:11:50.677Z,3.80
2019-03-17T04:14:27.019Z,3.90
2019-03-17T04:16:58.939Z,4.00
2019-03-17T04:19:40.267Z,4.00
2019-03-17T04:22:15.105Z,4.00
2019-03-17T04:24:54.028Z,4.10
2019-03-17T04:27:23.956Z,4.00
2019-03-17T04:29:53.814Z,4.00
2019-03-17T04:32:31.213Z,4.00
2019-03-17T04:35:02.700Z,4.00
2019-03-17T04:37:36.347Z,4.10
2019-03-17T04:40:10.122Z,4.00
2019-03-17T04:42:45.511Z,3.90
2019-03-17T04:45:25.967Z,4.00
2019-03-17T04:47:52.733Z,4.00
2019-03-17T04:50:24.821Z,4.00
2019-03-17T04:53:01.226Z,3.90
2019-03-17T04:55:38.788Z,3.90
2019-03-17T04:58:10.393Z,3.80
2019-03-17T05:00:48.451Z,3.80
2019-03-17T05:03:23.183Z,3.80
2019-03-17T05:06:11.337Z,3.70
2019-03-17T05:08:42.183Z,3.70
2019-03-17T05:11:13.261Z,3.80
2019-03-17T05:13:43.450Z,3.70
2019-03-17T05:16:19.695Z,3.70
2019-03-17T05:18:56.614Z,3.70
2019-03-17T05:21:26.590Z,3.70
2019-03-17T05:24:02.782Z,3.60
2019-03-17T05:26:34.287Z,3.60
2019-03-17T05:29:05.347Z,3.60
2019-03-17T05:31:36.272Z,3.50
2019-03-17T05:34:06.346Z,3.50
2019-03-17T05:36:40.744Z,3.50
2019-03-17T05:39:10.505Z,3.50
2019-03-17T05:41:49.077Z,3.40
2019-03-17T05:44:23.943Z,3.30
2019-03-17T05:46:48.025Z,3.30
2019-03-17T05:49:18.319Z,3.40
2019-03-17T05:51:51.335Z,3.40
2019-03-17T05:54:27.479Z,3.30
2019-03-17T05:57:03.495Z,3.40
2019-03-17T05:59:41.052Z,3.40
2019-03-17T06:02:21.209Z,3.30
2019-03-17T06:04:54.784Z,3.30
2019-03-17T06:07:24.550Z,3.30
2019-03-17T06:09:56.963Z,3.20
2019-03-17T06:12:37.756Z,3.30
2019-03-17T06:15:16.966Z,3.20
2019-03-17T06:17:44.129Z,3.20
2019-03-17T06:20:18.656Z,3.20
2019-03-17T06:23:00.559Z,3.10
2019-03-17T06:25:34.129Z,3.10
2019-03-17T06:28:05.505Z,3.00
2019-03-17T06:30:35.916Z,3.00
2019-03-17T06:33:13.093Z,3.10
2019-03-17T06:35:46.506Z,3.10
2019-03-17T06:38:21.726Z,3.10
2019-03-17T06:41:00.890Z,3.10
2019-03-17T06:43:31.586Z,3.10
2019-03-17T06:46:12.712Z,3.10
2019-03-17T06:48:46.167Z,3.20
2019-03-17T06:51:17.891Z,3.20
2019-03-17T06:53:56.448Z,3.30
2019-03-17T06:56:29.845Z,3.40
2019-03-17T06:59:00.977Z,3.40
2019-03-17T07:01:30.974Z,3.40
2019-03-17T07:04:01.066Z,3.40
2019-03-17T07:06:31.105Z,3.50
2019-03-17T07:09:05.385Z,3.60
2019-03-17T07:11:35.793Z,3.60
2019-03-17T07:14:07.332Z,3.70
2019-03-17T07:16:37.265Z,3.80
2019-03-17T07:19:13.415Z,3.90
2019-03-17T07:21:47.657Z,4.10
2019-03-17T07:24:17.862Z,4.40
2019-03-17T07:26:52.707Z,4.70
2019-03-17T07:29:31.399Z,4.80
2019-03-17T07:32:01.777Z,5.00
2019-03-17T07:34:31.681Z,5.10
2019-03-17T07:37:04.731Z,5.20
2019-03-17T07:39:46.669Z,5.10
2019-03-17T07:42:23.037Z,5.20
2019-03-17T07:44:53.528Z,5.20
2019-03-17T07:47:32.488Z,5.20
2019-03-17T07:50:03.618Z,5.10
2019-03-17T07:52:51.326Z,5.30
2019-03-17T07:55:21.453Z,5.40
2019-03-17T07:57:51.396Z,5.50
2019-03-17T08:00:31.927Z,5.80
2019-03-17T08:03:04.505Z,6.00
2019-03-17T08:05:37.307Z,6.20
2019-03-17T08:08:09.679Z,6.50
2019-03-17T08:10:39.170Z,6.50
2019-03-17T08:13:10.736Z,6.30
2019-03-17T08:15:43.310Z,6.10
2019-03-17T08:18:13.207Z,5.90
2019-03-17T08:20:43.020Z,5.80
2019-03-17T08:23:19.901Z,5.70
2019-03-17T08:26:00.465Z,5.50
2019-03-17T08:28:27.338Z,5.40
2019-03-17T08:31:10.276Z,5.30
2019-03-17T08:33:40.463Z,5.20
2019-03-17T08:36:11.826Z,5.10
2019-03-17T08:38:49.102Z,5.00
2019-03-17T08:41:16.290Z,4.90
2019-03-17T08:43:54.119Z,4.90
2019-03-17T08:46:21.067Z,5.00
2019-03-17T08:48:58.937Z,5.10
2019-03-17T08:51:36.130Z,5.20
2019-03-17T08:54:00.336Z,5.20
2019-03-17T08:56:30.290Z,5.70
2019-03-17T08:59:00.425Z,5.90
2019-03-17T09:01:32.081Z,5.90
2019-03-17T09:04:05.311Z,6.20
2019-03-17T09:06:39.690Z,5.90
2019-03-17T09:09:17.277Z,6.30
2019-03-17T09:11:59.298Z,6.70
2019-03-17T09:14:22.237Z,6.90
2019-03-17T09:17:13.436Z,6.80
2019-03-17T09:19:23.637Z,6.80
2019-03-17T09:22:02.611Z,7.20
2019-03-17T09:24:39.077Z,6.80
2019-03-17T09:27:08.537Z,6.30
2019-03-17T09:29:38.218Z,6.30
2019-03-17T09:32:08.977Z,6.50
2019-03-17T09:34:38.841Z,7.00
2019-03-17T09:37:08.805Z,7.80
2019-03-17T09:39:42.671Z,8.60
2019-03-17T09:42:16.392Z,8.90
2019-03-17T09:44:47.042Z,7.80
2019-03-17T09:47:16.867Z,7.70
2019-03-17T09:49:47.971Z,7.30
2019-03-17T09:52:19.400Z,7.30
2019-03-17T09:54:52.189Z,7.10
2019-03-17T09:57:23.838Z,7.20
2019-03-17T09:59:56.072Z,7.10
2019-03-17T10:02:34.046Z,6.90
2019-03-17T10:07:44.305Z,7.30
2019-03-17T10:10:15.032Z,7.50
2019-03-17T10:12:51.559Z,7.60
2019-03-17T10:15:23.770Z,7.60
2019-03-17T10:18:01.250Z,7.30
2019-03-17T10:20:34.312Z,7.10
2019-03-17T10:23:05.591Z,6.90
2019-03-17T10:25:55.068Z,7.10
2019-03-17T10:28:30.915Z,7.50
2019-03-17T10:31:06.303Z,8.20
2019-03-17T10:33:56.757Z,8.00
2019-03-17T10:36:44.383Z,7.80
2019-03-17T10:39:41.453Z,8.30
2019-03-17T10:41:54.511Z,8.80
2019-03-17T10:44:29.389Z,9.10
2019-03-17T10:47:02.785Z,9.00
2019-03-17T10:49:40.637Z,8.90
2019-03-17T10:52:11.019Z,9.70
2019-03-17T10:54:42.946Z,9.70
2019-03-17T10:57:21.312Z,9.00
2019-03-17T10:59:55.711Z,8.60
2019-03-17T11:02:30.553Z,8.40
2019-03-17T11:05:03.386Z,7.90
2019-03-17T11:07:38.005Z,7.50
2019-03-17T11:10:12.706Z,7.30
2019-03-17T11:13:00.321Z,7.40
2019-03-17T11:15:30.875Z,7.30
2019-03-17T11:18:03.719Z,7.20
2019-03-17T11:20:40.099Z,7.10
2019-03-17T11:23:17.737Z,7.10
2019-03-17T11:25:49.237Z,7.40
2019-03-17T11:28:27.925Z,7.40
2019-03-17T11:31:07.197Z,7.50
2019-03-17T11:33:44.248Z,7.40
2019-03-17T11:36:15.681Z,7.50
2019-03-17T11:38:45.762Z,7.70
2019-03-17T11:41:23.199Z,7.60
2019-03-17T11:43:56.030Z,7.40
2019-03-17T11:46:32.169Z,8.10
2019-03-17T11:49:11.251Z,8.40
2019-03-17T11:51:47.105Z,8.60
2019-03-17T11:54:27.064Z,9.20
2019-03-17T11:56:57.068Z,9.60
2019-03-17T11:59:28.449Z,9.70
2019-03-17T12:01:58.412Z,9.20
2019-03-17T12:04:28.736Z,8.50
2019-03-17T12:07:02.438Z,8.10
2019-03-17T12:09:32.672Z,8.00
2019-03-17T12:12:02.964Z,8.00
2019-03-17T12:14:32.898Z,8.00
2019-03-17T12:17:02.796Z,7.80
2019-03-17T12:19:32.993Z,7.80
2019-03-17T12:22:08.935Z,7.90
2019-03-17T12:24:35.332Z,8.00
2019-03-17T12:27:12.077Z,8.20
2019-03-17T12:29:42.594Z,8.90
2019-03-17T12:32:33.330Z,9.20
2019-03-17T12:34:54.570Z,8.70
2019-03-17T12:37:33.606Z,8.40
2019-03-17T12:40:07.862Z,8.20
2019-03-17T12:42:40.342Z,8.50
2019-03-17T12:45:16.229Z,9.00
2019-03-17T12:47:46.133Z,9.40
2019-03-17T12:50:16.805Z,9.40
2019-03-17T12:52:50.270Z,9.10
2019-03-17T12:55:20.179Z,8.80
2019-03-17T12:57:50.108Z,8.60
2019-03-17T13:00:20.266Z,8.40
2019-03-17T13:02:50.187Z,8.50
2019-03-17T13:05:22.069Z,8.60
2019-03-17T13:07:54.648Z,8.50
2019-03-17T13:10:28.080Z,8.60
2019-03-17T13:13:00.556Z,8.80
2019-03-17T13:15:30.463Z,8.70
2019-03-17T13:18:02.366Z,8.40
2019-03-17T13:20:34.365Z,8.10
2019-03-17T13:23:05.326Z,8.00
2019-03-17T13:25:35.215Z,8.10
2019-03-17T13:28:05.110Z,8.70
2019-03-17T13:30:35.125Z,9.20
2019-03-17T13:33:04.960Z,9.50
2019-03-17T13:35:53.989Z,9.40
2019-03-17T13:38:26.925Z,9.90
2019-03-17T13:41:01.082Z,9.90
2019-03-17T13:43:32.097Z,9.70
2019-03-17T13:46:05.914Z,9.90
2019-03-17T13:48:36.920Z,10.00
2019-03-17T13:51:10.242Z,9.80
2019-03-17T13:53:40.259Z,9.70
2019-03-17T13:56:12.735Z,9.30
2019-03-17T13:58:44.815Z,9.10
2019-03-17T14:01:16.586Z,8.90
2019-03-17T14:03:48.128Z,8.90
2019-03-17T14:06:25.265Z,9.20
2019-03-17T14:09:01.869Z,9.80
2019-03-17T14:11:31.705Z,9.90
2019-03-17T14:14:11.741Z,9.90
2019-03-17T14:16:41.861Z,9.80
2019-03-17T14:19:17.192Z,10.00
2019-03-17T14:21:48.778Z,10.10
2019-03-17T14:24:18.745Z,10.20
2019-03-17T14:26:49.227Z,9.80
2019-03-17T14:29:19.134Z,10.00
2019-03-17T14:31:53.652Z,10.30
2019-03-17T14:34:23.521Z,10.30
2019-03-17T14:36:54.760Z,10.20
2019-03-17T14:39:28.195Z,9.80
2019-03-17T14:41:58.192Z,9.60
2019-03-17T14:44:35.883Z,9.60
2019-03-17T14:47:09.003Z,9.90
2019-03-17T14:49:41.770Z,10.10
2019-03-17T14:52:15.787Z,9.90
2019-03-17T14:54:53.184Z,9.90
2019-03-17T14:57:25.583Z,10.20
2019-03-17T14:59:59.114Z,10.40
2019-03-17T15:02:36.307Z,10.10
2019-03-17T15:05:07.593Z,9.80
2019-03-17T15:07:42.020Z,9.50
2019-03-17T15:10:16.131Z,9.60
2019-03-17T15:12:56.790Z,9.60
2019-03-17T15:15:26.977Z,9.30
2019-03-17T15:17:54.240Z,8.90
2019-03-17T15:20:24.429Z,8.40
2019-03-17T15:22:54.534Z,8.60
2019-03-17T15:25:24.500Z,8.80
2019-03-17T15:27:59.581Z,8.80
2019-03-17T15:30:33.300Z,8.40
2019-03-17T15:33:03.346Z,8.10
2019-03-17T15:35:38.500Z,8.00
2019-03-17T15:38:19.123Z,8.00
2019-03-17T15:40:43.691Z,8.30
2019-03-17T15:43:18.171Z,8.70
2019-03-17T15:45:54.323Z,8.80
2019-03-17T15:48:27.075Z,9.00
2019-03-17T15:51:02.209Z,9.00
2019-03-17T15:53:35.092Z,9.00
2019-03-17T15:56:05.101Z,9.00
2019-03-17T15:58:35.117Z,9.00
2019-03-17T16:01:05.173Z,9.10
2019-03-17T16:03:39.048Z,9.10
2019-03-17T16:06:11.519Z,9.00
2019-03-17T16:08:43.895Z,9.20
2019-03-17T16:11:13.767Z,9.10
2019-03-17T16:13:44.660Z,9.00
2019-03-17T16:16:16.464Z,8.90
2019-03-17T16:18:46.792Z,8.80
2019-03-17T16:21:18.340Z,8.80
2019-03-17T16:23:49.873Z,8.40
2019-03-17T16:26:19.694Z,8.10
2019-03-17T16:28:49.699Z,8.00
2019-03-17T16:31:25.970Z,7.90
2019-03-17T16:33:59.954Z,7.70
2019-03-17T16:36:29.186Z,7.80
2019-03-17T16:38:59.126Z,7.80
2019-03-17T16:41:42.610Z,7.80
2019-03-17T16:44:03.123Z,8.00
2019-03-17T16:46:41.715Z,8.00
2019-03-17T16:49:08.328Z,8.00
2019-03-17T16:51:44.234Z,7.90
2019-03-17T16:54:14.252Z,7.60
2019-03-17T16:56:44.790Z,7.50
2019-03-17T16:59:15.718Z,7.50
2019-03-17T17:01:45.601Z,7.60
2019-03-17T17:04:15.414Z,7.70
2019-03-17T17:06:48.226Z,7.70
2019-03-17T17:09:20.107Z,7.70
2019-03-17T17:11:57.206Z,7.50
2019-03-17T17:14:23.039Z,7.40
2019-03-17T17:16:57.338Z,7.50
2019-03-17T17:19:27.341Z,7.30
2019-03-17T17:21:58.681Z,7.30
2019-03-17T17:24:33.134Z,7.30
2019-03-17T17:27:00.659Z,7.40
2019-03-17T17:29:38.147Z,7.40
2019-03-17T17:32:14.429Z,7.50
2019-03-17T17:34:47.724Z,7.40
2019-03-17T17:37:21.410Z,7.40
2019-03-17T17:39:54.090Z,7.20
2019-03-17T17:42:31.087Z,7.20
2019-03-17T17:45:11.811Z,7.10
2019-03-17T17:47:42.066Z,7.10
2019-03-17T17:50:15.189Z,7.00
2019-03-17T17:52:49.466Z,7.00
2019-03-17T17:55:19.523Z,7.00
2019-03-17T17:57:52.493Z,6.90
2019-03-17T18:00:22.100Z,6.80
2019-03-17T18:02:59.680Z,6.90
2019-03-17T18:05:33.038Z,6.80
2019-03-17T18:08:03.000Z,6.70
2019-03-17T18:10:35.272Z,6.60
2019-03-17T18:13:05.316Z,6.60
2019-03-17T18:15:38.110Z,6.50
2019-03-17T18:18:08.078Z,6.40
2019-03-17T18:20:38.061Z,6.30
2019-03-17T18:23:17.419Z,6.30
2019-03-17T18:25:41.781Z,6.30
2019-03-17T18:28:13.337Z,6.30
2019-03-17T18:30:46.080Z,6.20
2019-03-17T18:33:20.604Z,6.20
2019-03-17T18:35:57.355Z,6.10
2019-03-17T18:38:46.312Z,6.10
2019-03-17T18:41:16.097Z,6.10
2019-03-17T18:43:46.453Z,6.20
2019-03-17T18:46:23.435Z,6.20
2019-03-17T18:48:56.692Z,6.20
2019-03-17T18:51:32.424Z,6.20
2019-03-17T18:53:59.957Z,6.20
2019-03-17T18:56:33.349Z,6.20
2019-03-17T18:59:04.855Z,6.20
2019-03-17T19:01:34.917Z,6.20
2019-03-17T19:04:04.890Z,6.20
2019-03-17T19:06:36.118Z,6.20
2019-03-17T19:09:07.761Z,6.30
2019-03-17T19:11:42.314Z,6.40
2019-03-17T19:14:16.180Z,6.40
2019-03-17T19:16:46.091Z,6.40
2019-03-17T19:19:16.095Z,6.40
2019-03-17T19:21:52.893Z,6.40
2019-03-17T19:24:22.773Z,6.40
2019-03-17T19:27:06.205Z,6.40
2019-03-17T19:29:40.349Z,6.40
2019-03-17T19:32:17.936Z,6.40
2019-03-17T19:34:47.843Z,6.50
2019-03-17T19:37:17.779Z,6.40
2019-03-17T19:39:48.285Z,6.40
2019-03-17T19:42:27.523Z,6.50
2019-03-17T19:45:01.114Z,6.40
2019-03-17T19:47:32.991Z,6.40
2019-03-17T19:50:10.152Z,6.40
2019-03-17T19:52:50.306Z,6.40
2019-03-17T19:55:28.426Z,6.40
2019-03-17T19:57:51.697Z,6.40
2019-03-17T20:00:22.667Z,6.40
2019-03-17T20:02:52.857Z,6.30
2019-03-17T20:05:22.975Z,6.30
2019-03-17T20:07:53.704Z,6.30
2019-03-17T20:10:30.080Z,6.20
2019-03-17T20:12:55.393Z,6.20
2019-03-17T20:15:29.490Z,6.20
2019-03-17T20:18:04.231Z,6.20
2019-03-17T20:20:35.923Z,6.20
2019-03-17T20:23:13.355Z,6.20
2019-03-17T20:25:43.721Z,6.20
2019-03-17T20:28:14.563Z,6.10
2019-03-17T20:30:44.841Z,6.10
2019-03-17T20:33:30.978Z,6.00
2019-03-17T20:35:58.904Z,5.80
2019-03-17T20:38:30.523Z,5.60
2019-03-17T20:41:00.537Z,5.50
2019-03-17T20:43:35.327Z,5.40
2019-03-17T20:46:04.930Z,5.40
2019-03-17T20:48:35.088Z,5.30
2019-03-17T20:51:05.055Z,5.20
2019-03-17T20:53:36.501Z,5.20
2019-03-17T20:56:10.415Z,5.10
2019-03-17T20:58:40.775Z,5.10
2019-03-17T21:01:12.872Z,4.90
2019-03-17T21:03:44.015Z,4.90
2019-03-17T21:06:14.171Z,4.90
2019-03-17T21:08:46.561Z,4.90
2019-03-17T21:11:19.295Z,4.90
2019-03-17T21:13:49.208Z,4.90
2019-03-17T21:16:31.254Z,4.80
2019-03-17T21:19:03.266Z,4.70
2019-03-17T21:21:42.259Z,4.80
2019-03-17T21:24:12.369Z,4.60
2019-03-17T21:26:49.537Z,4.60
2019-03-17T21:29:23.957Z,4.60
2019-03-17T21:31:54.097Z,4.60
2019-03-17T21:34:30.337Z,4.70
2019-03-17T21:37:03.188Z,4.60
2019-03-17T21:39:37.560Z,4.50
2019-03-17T21:42:11.141Z,4.40
2019-03-17T21:44:41.019Z,4.30
2019-03-17T21:47:14.253Z,4.40
2019-03-17T21:49:44.213Z,4.40
2019-03-17T21:52:21.658Z,4.50
2019-03-17T21:54:55.775Z,4.50
2019-03-17T21:57:27.820Z,4.60
2019-03-17T21:59:57.961Z,4.50
2019-03-17T22:02:32.593Z,4.50
2019-03-17T22:05:04.451Z,4.70
2019-03-17T22:07:34.020Z,4.70
2019-03-17T22:10:11.602Z,4.70
2019-03-17T22:12:43.197Z,4.60
2019-03-17T22:15:14.469Z,4.50
2019-03-17T22:17:44.538Z,4.60
2019-03-17T22:20:18.788Z,4.50
2019-03-17T22:22:52.191Z,4.60
2019-03-17T22:25:32.548Z,4.40
2019-03-17T22:27:53.856Z,4.40
2019-03-17T22:30:28.704Z,4.60
2019-03-17T22:32:58.982Z,4.70
2019-03-17T22:35:32.518Z,4.60
2019-03-17T22:38:02.641Z,4.40
2019-03-17T22:40:35.320Z,4.50
2019-03-17T22:43:06.556Z,4.60
2019-03-17T23:07:32.400Z,4.80
2019-03-17T23:10:02.555Z,4.60
2019-03-17T23:12:37.136Z,4.50
2019-03-17T23:15:11.728Z,4.30
2019-03-17T23:17:41.712Z,4.20
2019-03-17T23:20:14.000Z,4.20
2019-03-17T23:22:44.529Z,4.40
2019-03-17T23:25:15.058Z,4.30
2019-03-17T23:27:51.623Z,4.30
2019-03-17T23:30:21.444Z,4.40
2019-03-17T23:32:58.230Z,4.60
2019-03-17T23:35:28.543Z,4.60
2019-03-17T23:38:01.109Z,4.70
2019-03-17T23:40:33.008Z,4.70
2019-03-17T23:43:02.899Z,4.70
2019-03-17T23:45:35.670Z,4.70
2019-03-17T23:48:05.793Z,4.70
2019-03-17T23:50:40.834Z,4.70
2019-03-17T23:53:13.727Z,4.60
2019-03-17T23:55:49.074Z,4.70
2019-03-17T23:58:21.946Z,4.80
